createdAt,value
2023-05-16T00:00:35.138Z,12.55
2023-05-16T00:03:22.733Z,13.32
2023-05-16T00:05:50.772Z,11.07
2023-05-16T00:08:18.753Z,12.40
2023-05-16T00:10:46.306Z,11.73
2023-05-16T00:13:13.768Z,11.93
2023-05-16T00:15:41.747Z,11.98
2023-05-16T00:18:10.009Z,12.20
2023-05-16T00:20:37.680Z,12.52
2023-05-16T00:23:04.981Z,13.48
2023-05-16T00:25:32.421Z,11.73
2023-05-16T00:27:59.617Z,11.25
2023-05-16T00:30:27.399Z,11.85
2023-05-16T00:32:55.950Z,12.10
2023-05-16T00:35:24.667Z,12.65
2023-05-16T00:37:51.963Z,14.18
2023-05-16T00:40:19.572Z,14.18
2023-05-16T00:42:46.951Z,15.50
2023-05-16T00:45:14.439Z,15.43
2023-05-16T00:47:41.803Z,15.52
2023-05-16T00:50:10.097Z,15.38
2023-05-16T00:52:37.884Z,14.60
2023-05-16T00:55:06.158Z,15.20
2023-05-16T00:57:34.965Z,13.52
2023-05-16T01:00:07.037Z,13.73
2023-05-16T01:02:37.611Z,14.40
2023-05-16T01:05:05.627Z,15.85
2023-05-16T01:07:32.824Z,14.15
2023-05-16T01:10:00.761Z,13.02
2023-05-16T01:12:43.541Z,13.40
2023-05-16T01:15:45.474Z,12.60
2023-05-16T01:18:43.402Z,12.43
2023-05-16T01:21:17.164Z,13.98
2023-05-16T01:23:56.985Z,12.68
2023-05-16T01:26:28.444Z,13.43
2023-05-16T01:28:56.095Z,11.53
2023-05-16T01:31:24.237Z,11.68
2023-05-16T01:33:52.105Z,12.68
2023-05-16T01:36:22.758Z,13.15
2023-05-16T01:38:59.801Z,14.18
2023-05-16T01:41:46.148Z,14.90
2023-05-16T01:44:37.563Z,14.35
2023-05-16T01:47:10.223Z,15.60
2023-05-16T01:49:51.261Z,14.77
2023-05-16T01:52:45.306Z,14.60
2023-05-16T01:55:23.672Z,15.10
2023-05-16T01:57:53.095Z,15.70
2023-05-16T02:00:21.608Z,15.80
2023-05-16T02:02:49.132Z,16.60
2023-05-16T02:05:17.616Z,16.35
2023-05-16T02:07:45.650Z,17.05
2023-05-16T02:10:13.882Z,17.88
2023-05-16T02:12:41.646Z,17.20
2023-05-16T02:15:10.208Z,17.10
2023-05-16T02:17:37.968Z,17.05
2023-05-16T02:20:07.315Z,18.58
2023-05-16T02:22:35.125Z,16.95
2023-05-16T02:25:03.357Z,17.83
2023-05-16T02:27:31.084Z,18.50
2023-05-16T02:29:58.930Z,16.33
2023-05-16T02:32:26.811Z,18.63
2023-05-16T02:34:54.124Z,17.25
2023-05-16T02:37:24.350Z,17.77
2023-05-16T02:39:51.569Z,18.50
2023-05-16T02:42:19.108Z,17.70
2023-05-16T02:44:46.563Z,18.50
2023-05-16T02:47:14.342Z,18.77
2023-05-16T02:49:41.680Z,18.92
2023-05-16T02:52:09.601Z,19.25
2023-05-16T02:54:36.876Z,18.63
2023-05-16T02:57:05.268Z,18.63
2023-05-16T02:59:32.564Z,18.88
2023-05-16T03:02:00.480Z,18.33
2023-05-16T03:04:28.117Z,18.33
2023-05-16T03:06:56.341Z,17.83
2023-05-16T03:09:23.533Z,18.23
2023-05-16T03:11:51.540Z,18.08
2023-05-16T03:14:20.333Z,21.60
2023-05-16T03:16:48.369Z,19.13
2023-05-16T03:19:15.889Z,18.90
2023-05-16T03:21:43.398Z,19.50
2023-05-16T03:24:11.205Z,18.92
2023-05-16T03:26:38.742Z,19.02
2023-05-16T03:29:06.269Z,18.10
2023-05-16T03:31:33.879Z,19.00
2023-05-16T03:34:01.301Z,17.40
2023-05-16T03:36:28.847Z,19.00
2023-05-16T03:38:56.047Z,17.25
2023-05-16T03:41:23.482Z,17.10
2023-05-16T03:43:50.729Z,18.27
2023-05-16T03:46:19.074Z,18.08
2023-05-16T03:48:46.537Z,16.98
2023-05-16T03:51:14.077Z,17.45
2023-05-16T03:53:41.950Z,17.75
2023-05-16T03:56:09.783Z,17.17
2023-05-16T03:58:37.015Z,16.48
2023-05-16T04:01:04.783Z,18.17
2023-05-16T04:03:33.858Z,16.63
2023-05-16T04:06:01.594Z,16.73
2023-05-16T04:08:28.877Z,16.42
2023-05-16T04:10:56.393Z,15.85
2023-05-16T04:13:23.594Z,15.93
2023-05-16T04:15:51.169Z,16.65
2023-05-16T04:18:18.546Z,16.73
2023-05-16T04:20:47.620Z,15.80
2023-05-16T04:23:14.980Z,16.30
2023-05-16T04:25:42.974Z,15.80
2023-05-16T04:28:10.419Z,14.73
2023-05-16T04:30:38.537Z,15.57
2023-05-16T04:33:06.188Z,15.80
2023-05-16T04:35:33.853Z,15.30
2023-05-16T04:38:01.954Z,14.57
2023-05-16T04:40:29.541Z,15.07
2023-05-16T04:42:57.243Z,15.20
2023-05-16T04:45:24.922Z,16.35
2023-05-16T04:47:52.436Z,16.30
2023-05-16T04:50:19.943Z,19.00
2023-05-16T04:52:47.155Z,14.98
2023-05-16T04:55:14.908Z,15.65
2023-05-16T04:57:42.417Z,15.38
2023-05-16T05:00:12.073Z,16.15
2023-05-16T05:02:39.671Z,15.80
2023-05-16T05:05:08.616Z,15.30
2023-05-16T05:07:36.269Z,14.52
2023-05-16T05:10:03.920Z,14.00
2023-05-16T05:12:31.245Z,14.25
2023-05-16T05:14:58.690Z,14.98
2023-05-16T05:17:26.142Z,13.20
2023-05-16T05:19:53.689Z,15.43
2023-05-16T05:22:20.913Z,13.57
2023-05-16T05:24:48.489Z,13.60
2023-05-16T05:27:16.207Z,11.93
2023-05-16T05:29:43.744Z,12.27
2023-05-16T05:32:11.045Z,13.60
2023-05-16T05:34:38.569Z,11.77
2023-05-16T05:37:06.160Z,12.88
2023-05-16T05:39:33.813Z,12.55
2023-05-16T05:42:04.009Z,12.93
2023-05-16T05:44:31.669Z,14.20
2023-05-16T05:46:59.164Z,12.95
2023-05-16T05:49:30.027Z,13.73
2023-05-16T05:51:57.647Z,14.60
2023-05-16T05:54:25.523Z,14.02
2023-05-16T05:56:52.950Z,15.35
2023-05-16T05:59:20.412Z,16.30
2023-05-16T06:01:52.511Z,16.77
2023-05-16T06:04:21.057Z,18.73
2023-05-16T06:06:48.530Z,15.10
2023-05-16T06:09:16.088Z,17.85
2023-05-16T06:11:45.826Z,15.88
2023-05-16T06:14:15.647Z,16.02
2023-05-16T06:16:42.879Z,15.05
2023-05-16T06:19:12.537Z,14.15
2023-05-16T06:21:39.898Z,14.60
2023-05-16T06:24:07.488Z,14.32
2023-05-16T06:26:36.005Z,11.90
2023-05-16T06:29:03.694Z,12.25
2023-05-16T06:31:32.000Z,10.68
2023-05-16T06:33:59.480Z,11.73
2023-05-16T06:36:26.692Z,11.02
2023-05-16T06:38:55.625Z,10.63
2023-05-16T06:41:23.355Z,10.65
2023-05-16T06:43:51.673Z,10.27
2023-05-16T06:46:18.998Z,8.88
2023-05-16T06:48:46.710Z,8.65
2023-05-16T06:51:14.014Z,7.82
2023-05-16T06:53:41.564Z,8.10
2023-05-16T06:56:08.939Z,7.75
2023-05-16T06:58:37.016Z,8.07
2023-05-16T07:01:04.444Z,7.47
2023-05-16T07:03:34.385Z,7.07
2023-05-16T07:06:01.861Z,6.70
2023-05-16T07:08:29.535Z,7.70
2023-05-16T07:10:56.891Z,7.95
2023-05-16T07:13:24.511Z,6.45
2023-05-16T07:15:51.911Z,7.82
2023-05-16T07:18:19.517Z,8.68
2023-05-16T07:20:46.816Z,5.88
2023-05-16T07:23:14.442Z,7.18
2023-05-16T07:25:42.005Z,6.88
2023-05-16T07:28:10.885Z,6.03
2023-05-16T07:30:38.176Z,5.38
2023-05-16T07:33:05.983Z,7.75
2023-05-16T07:35:33.296Z,4.80
2023-05-16T07:38:00.986Z,4.00
2023-05-16T07:40:29.431Z,3.70
2023-05-16T07:42:57.223Z,3.30
2023-05-16T07:45:24.613Z,3.90
2023-05-16T07:47:52.359Z,4.78
2023-05-16T07:50:19.896Z,3.67
2023-05-16T07:52:47.484Z,3.47
2023-05-16T07:55:15.089Z,3.10
2023-05-16T07:57:43.728Z,2.40
2023-05-16T08:00:11.757Z,3.15
2023-05-16T08:02:43.114Z,2.42
2023-05-16T08:05:10.994Z,2.90
2023-05-16T08:07:38.545Z,3.22
2023-05-16T08:10:06.371Z,3.30
2023-05-16T08:12:34.027Z,2.65
2023-05-16T08:15:01.315Z,3.28
2023-05-16T08:17:29.297Z,3.10
2023-05-16T08:19:56.773Z,3.00
2023-05-16T08:22:24.433Z,2.38
2023-05-16T08:24:51.692Z,2.55
2023-05-16T08:27:19.233Z,2.45
2023-05-16T08:29:46.722Z,2.03
2023-05-16T08:32:14.389Z,2.47
2023-05-16T08:34:42.590Z,2.20
2023-05-16T08:37:11.058Z,2.47
2023-05-16T08:39:40.974Z,2.00
2023-05-16T08:42:08.681Z,2.25
2023-05-16T08:44:36.216Z,2.17
2023-05-16T08:47:13.088Z,2.05
2023-05-16T08:49:42.497Z,2.45
2023-05-16T08:52:11.801Z,2.05
2023-05-16T08:54:41.169Z,1.80
2023-05-16T08:57:09.706Z,1.75
2023-05-16T08:59:37.756Z,1.95
2023-05-16T09:02:05.952Z,2.00
2023-05-16T09:04:33.986Z,1.67
2023-05-16T09:07:01.574Z,1.60
2023-05-16T09:09:30.037Z,1.20
2023-05-16T09:12:00.253Z,1.20
2023-05-16T09:14:27.790Z,1.23
2023-05-16T09:17:12.202Z,1.23
2023-05-16T09:19:41.071Z,1.45
2023-05-16T09:22:15.647Z,1.10
2023-05-16T09:24:43.991Z,1.30
2023-05-16T09:27:15.984Z,1.10
2023-05-16T09:29:44.659Z,1.20
2023-05-16T09:32:16.589Z,1.42
2023-05-16T09:34:45.865Z,1.40
2023-05-16T09:37:13.500Z,1.20
2023-05-16T09:39:50.396Z,1.23
2023-05-16T09:42:20.056Z,1.08
2023-05-16T09:44:52.940Z,0.85
2023-05-16T09:47:22.548Z,1.00
2023-05-16T09:49:53.646Z,0.90
2023-05-16T09:52:21.477Z,1.42
2023-05-16T09:54:50.077Z,0.90
2023-05-16T09:57:24.145Z,1.13
2023-05-16T09:59:51.757Z,1.40
2023-05-16T10:02:20.216Z,0.88
2023-05-16T10:04:47.870Z,0.93
2023-05-16T10:07:17.257Z,0.88
2023-05-16T10:09:45.307Z,1.60
2023-05-16T10:12:15.472Z,1.20
2023-05-16T10:14:46.576Z,1.00
2023-05-16T10:17:15.994Z,1.20
2023-05-16T10:19:43.682Z,1.10
2023-05-16T10:22:13.661Z,1.05
2023-05-16T10:24:45.147Z,1.00
2023-05-16T10:27:13.735Z,1.25
2023-05-16T10:29:53.384Z,1.23
2023-05-16T10:32:25.758Z,0.98
2023-05-16T10:34:55.743Z,1.00
2023-05-16T10:37:24.726Z,1.85
2023-05-16T10:39:53.122Z,1.17
2023-05-16T10:42:21.382Z,1.30
2023-05-16T10:45:01.919Z,1.10
2023-05-16T10:47:34.274Z,1.10
2023-05-16T10:50:01.793Z,1.58
2023-05-16T10:52:35.579Z,1.08
2023-05-16T10:55:04.916Z,1.45
2023-05-16T10:57:33.761Z,0.80
2023-05-16T11:00:02.197Z,0.90
2023-05-16T11:02:33.854Z,1.45
2023-05-16T11:05:03.109Z,1.30
2023-05-16T11:07:34.442Z,1.42
2023-05-16T11:10:16.020Z,1.37
2023-05-16T11:12:46.303Z,1.38
2023-05-16T11:15:26.386Z,2.20
2023-05-16T11:18:17.827Z,1.58
2023-05-16T11:20:45.589Z,1.80
2023-05-16T11:23:18.901Z,1.80
2023-05-16T11:25:49.294Z,1.27
2023-05-16T11:28:19.580Z,1.45
2023-05-16T11:30:52.128Z,1.35
2023-05-16T11:33:19.845Z,1.42
2023-05-16T11:36:15.886Z,1.20
2023-05-16T11:38:44.581Z,1.23
2023-05-16T11:41:12.489Z,1.25
2023-05-16T11:43:45.228Z,1.10
2023-05-16T11:46:16.451Z,1.10
2023-05-16T11:48:46.442Z,0.90
2023-05-16T11:51:18.678Z,1.23
2023-05-16T11:53:49.819Z,1.25
2023-05-16T11:56:17.420Z,1.33
2023-05-16T11:58:45.745Z,1.05
2023-05-16T12:01:13.210Z,1.25
2023-05-16T12:03:41.453Z,1.90
2023-05-16T12:06:09.011Z,0.98
2023-05-16T12:08:36.783Z,1.85
2023-05-16T12:11:04.133Z,1.30
2023-05-16T12:13:31.903Z,1.63
2023-05-16T12:15:59.434Z,1.27
2023-05-16T12:18:27.136Z,1.27
2023-05-16T12:20:54.699Z,1.65
2023-05-16T12:23:22.441Z,1.13
2023-05-16T12:25:50.003Z,1.63
2023-05-16T12:28:17.803Z,1.02
2023-05-16T12:30:48.050Z,1.20
2023-05-16T12:33:17.427Z,1.38
2023-05-16T12:35:47.132Z,1.23
2023-05-16T12:38:17.520Z,1.50
2023-05-16T12:40:46.169Z,1.17
2023-05-16T12:43:20.163Z,1.52
2023-05-16T12:45:55.252Z,1.40
2023-05-16T12:48:24.428Z,2.00
2023-05-16T12:50:51.697Z,1.20
2023-05-16T12:53:19.683Z,1.58
2023-05-16T12:55:47.261Z,1.55
2023-05-16T12:58:14.979Z,0.98
2023-05-16T13:00:43.011Z,1.25
2023-05-16T13:03:10.794Z,0.90
2023-05-16T13:05:38.255Z,1.25
2023-05-16T13:08:06.255Z,1.52
2023-05-16T13:10:34.741Z,1.27
2023-05-16T13:13:02.665Z,1.70
2023-05-16T13:15:30.450Z,1.27
2023-05-16T13:17:58.351Z,1.40
2023-05-16T13:20:25.920Z,1.15
2023-05-16T13:22:53.612Z,1.30
2023-05-16T13:25:21.379Z,1.23
2023-05-16T13:27:49.667Z,1.20
2023-05-16T13:30:17.315Z,1.30
2023-05-16T13:32:44.957Z,1.42
2023-05-16T13:35:12.394Z,1.38
2023-05-16T13:37:41.540Z,2.25
2023-05-16T13:40:10.618Z,1.17
2023-05-16T13:42:38.771Z,1.55
2023-05-16T13:45:07.164Z,1.30
2023-05-16T13:47:35.130Z,1.42
2023-05-16T13:50:09.347Z,8.07
2023-05-16T13:52:38.425Z,2.28
2023-05-16T13:55:06.786Z,1.52
2023-05-16T13:57:34.806Z,1.58
2023-05-16T14:00:31.160Z,1.60
2023-05-16T14:02:53.122Z,1.17
2023-05-16T14:05:20.572Z,1.35
2023-05-16T14:07:48.721Z,1.48
2023-05-16T14:10:17.054Z,2.17
2023-05-16T14:12:44.924Z,1.58
2023-05-16T14:15:12.362Z,1.20
2023-05-16T14:17:40.072Z,1.13
2023-05-16T14:20:11.096Z,1.50
2023-05-16T14:22:38.681Z,1.15
2023-05-16T14:25:07.163Z,1.98
2023-05-16T14:27:34.720Z,1.63
2023-05-16T14:30:02.080Z,1.45
2023-05-16T14:32:31.756Z,1.70
2023-05-16T14:34:59.237Z,1.60
2023-05-16T14:37:27.711Z,1.40
2023-05-16T14:39:55.264Z,1.60
2023-05-16T14:42:22.886Z,1.15
2023-05-16T14:44:50.501Z,1.83
2023-05-16T14:47:18.305Z,1.55
2023-05-16T14:49:48.788Z,1.45
2023-05-16T14:52:19.521Z,1.42
2023-05-16T14:54:48.004Z,1.50
2023-05-16T14:57:15.931Z,1.45
2023-05-16T14:59:48.649Z,1.63
2023-05-16T15:02:16.873Z,2.42
2023-05-16T15:04:45.001Z,1.33
2023-05-16T15:07:13.332Z,1.80
2023-05-16T15:09:41.433Z,1.45
2023-05-16T15:12:10.028Z,1.33
2023-05-16T15:14:38.970Z,1.15
2023-05-16T15:17:09.104Z,1.35
2023-05-16T15:19:37.646Z,1.40
2023-05-16T15:22:08.036Z,1.45
2023-05-16T15:24:39.330Z,1.60
2023-05-16T15:27:10.817Z,1.42
2023-05-16T15:29:39.296Z,1.55
2023-05-16T15:32:12.259Z,1.25
2023-05-16T15:34:46.330Z,1.60
2023-05-16T15:37:25.008Z,1.60
2023-05-16T15:39:54.667Z,1.98
2023-05-16T15:42:22.909Z,2.50
2023-05-16T15:44:50.666Z,1.38
2023-05-16T15:47:20.917Z,2.22
2023-05-16T15:49:58.719Z,1.83
2023-05-16T15:52:29.494Z,1.65
2023-05-16T15:54:57.018Z,1.63
2023-05-16T15:57:28.160Z,1.45
2023-05-16T15:59:58.931Z,1.97
2023-05-16T16:02:26.861Z,2.38
2023-05-16T16:04:54.666Z,1.48
2023-05-16T16:07:23.059Z,1.70
2023-05-16T16:09:51.251Z,1.90
2023-05-16T16:12:19.392Z,1.63
2023-05-16T16:14:50.202Z,1.90
2023-05-16T16:17:18.385Z,2.30
2023-05-16T16:19:46.123Z,1.90
2023-05-16T16:22:14.404Z,2.40
2023-05-16T16:24:50.999Z,1.85
2023-05-16T16:27:22.254Z,2.13
2023-05-16T16:29:51.149Z,2.33
2023-05-16T16:32:19.141Z,4.35
2023-05-16T16:34:46.421Z,2.00
2023-05-16T16:37:14.192Z,2.28
2023-05-16T16:39:41.869Z,2.75
2023-05-16T16:42:09.555Z,2.55
2023-05-16T16:44:37.133Z,2.08
2023-05-16T16:47:04.922Z,2.38
2023-05-16T16:49:32.732Z,3.08
2023-05-16T16:52:00.917Z,3.00
2023-05-16T16:54:28.594Z,4.78
2023-05-16T16:56:56.579Z,4.53
2023-05-16T16:59:24.136Z,6.25
2023-05-16T17:01:51.991Z,4.25
2023-05-16T17:04:19.286Z,3.83
2023-05-16T17:06:48.661Z,4.10
2023-05-16T17:09:18.027Z,2.50
2023-05-16T17:11:46.871Z,3.88
2023-05-16T17:14:15.209Z,3.33
2023-05-16T17:16:43.076Z,3.17
2023-05-16T17:19:11.321Z,3.58
2023-05-16T17:21:40.740Z,4.47
2023-05-16T17:24:08.136Z,3.88
2023-05-16T17:26:36.246Z,3.53
2023-05-16T17:29:06.894Z,3.58
2023-05-16T17:31:34.852Z,3.90
2023-05-16T17:34:02.476Z,4.35
2023-05-16T17:36:31.125Z,3.83
2023-05-16T17:38:59.273Z,5.45
2023-05-16T17:41:27.054Z,3.15
2023-05-16T17:43:54.692Z,3.38
2023-05-16T17:46:22.254Z,3.50
2023-05-16T17:48:49.738Z,3.15
2023-05-16T17:51:17.656Z,5.40
2023-05-16T17:53:45.607Z,2.83
2023-05-16T17:56:14.051Z,3.08
2023-05-16T17:58:42.003Z,5.97
2023-05-16T18:01:10.320Z,6.50
2023-05-16T18:03:37.772Z,5.78
2023-05-16T18:06:07.164Z,5.68
2023-05-16T18:08:34.469Z,5.40
2023-05-16T18:11:02.352Z,5.68
2023-05-16T18:13:29.833Z,5.78
2023-05-16T18:15:57.445Z,5.93
2023-05-16T18:18:24.929Z,3.83
2023-05-16T18:20:52.642Z,3.78
2023-05-16T18:23:20.073Z,3.45
2023-05-16T18:25:47.907Z,3.75
2023-05-16T18:28:15.124Z,3.63
2023-05-16T18:30:42.771Z,4.10
2023-05-16T18:33:10.409Z,4.53
2023-05-16T18:35:37.989Z,3.70
2023-05-16T18:38:05.557Z,4.15
2023-05-16T18:40:33.267Z,4.40
2023-05-16T18:43:01.160Z,4.15
2023-05-16T18:45:30.201Z,3.97
2023-05-16T18:47:57.899Z,4.13
2023-05-16T18:50:26.316Z,4.10
2023-05-16T18:52:57.422Z,4.72
2023-05-16T18:55:26.342Z,4.90
2023-05-16T18:57:54.031Z,4.93
2023-05-16T19:00:27.138Z,4.57
2023-05-16T19:02:54.990Z,5.43
2023-05-16T19:05:23.256Z,5.70
2023-05-16T19:07:51.300Z,4.80
2023-05-16T19:10:19.621Z,4.97
2023-05-16T19:12:48.998Z,5.57
2023-05-16T19:15:17.053Z,5.70
2023-05-16T19:17:44.834Z,5.80
2023-05-16T19:20:12.689Z,5.80
2023-05-16T19:22:40.472Z,5.40
2023-05-16T19:25:08.855Z,6.80
2023-05-16T19:27:36.197Z,5.85
2023-05-16T19:30:04.236Z,6.97
2023-05-16T19:32:31.558Z,6.75
2023-05-16T19:34:59.381Z,7.88
2023-05-16T19:37:27.089Z,9.23
2023-05-16T19:39:55.298Z,9.40
2023-05-16T19:42:25.575Z,8.95
2023-05-16T19:44:53.168Z,9.25
2023-05-16T19:47:20.488Z,10.93
2023-05-16T19:49:48.363Z,12.88
2023-05-16T19:52:15.671Z,13.52
2023-05-16T19:54:43.681Z,14.65
2023-05-16T19:57:11.250Z,13.45
2023-05-16T19:59:38.892Z,13.65
2023-05-16T20:02:06.904Z,14.00
2023-05-16T20:04:34.810Z,15.30
2023-05-16T20:07:02.262Z,15.98
2023-05-16T20:09:30.131Z,16.60
2023-05-16T20:11:58.201Z,16.90
2023-05-16T20:14:26.127Z,17.08
2023-05-16T20:16:53.688Z,18.08
2023-05-16T20:19:21.578Z,18.90
2023-05-16T20:21:48.930Z,19.85
2023-05-16T20:24:17.691Z,21.45
2023-05-16T20:26:45.033Z,23.42
2023-05-16T20:29:12.811Z,22.95
2023-05-16T20:31:43.182Z,23.33
2023-05-16T20:34:13.959Z,23.70
2023-05-16T20:36:41.347Z,25.52
2023-05-16T20:39:09.165Z,29.30
2023-05-16T20:41:36.707Z,30.50
2023-05-16T20:44:04.508Z,31.77
2023-05-16T20:46:32.170Z,29.83
2023-05-16T20:48:59.850Z,29.33
2023-05-16T20:51:27.608Z,27.42
2023-05-16T20:53:58.008Z,26.58
2023-05-16T20:56:26.471Z,27.63
2023-05-16T20:58:54.178Z,29.05
2023-05-16T21:01:21.534Z,26.30
2023-05-16T21:03:49.232Z,29.15
2023-05-16T21:06:16.676Z,29.30
2023-05-16T21:08:44.436Z,29.42
2023-05-16T21:11:11.711Z,28.95
2023-05-16T21:13:39.314Z,29.80
2023-05-16T21:16:08.877Z,30.02
2023-05-16T21:18:36.627Z,29.58
2023-05-16T21:21:04.122Z,29.33
2023-05-16T21:23:31.953Z,29.33
2023-05-16T21:25:59.285Z,30.98
2023-05-16T21:28:26.965Z,31.02
2023-05-16T21:30:54.427Z,31.00
2023-05-16T21:33:22.368Z,31.58
2023-05-16T21:35:50.130Z,32.22
2023-05-16T21:38:17.702Z,35.40
2023-05-16T21:40:45.290Z,35.78
2023-05-16T21:43:13.188Z,40.53
2023-05-16T21:45:40.669Z,41.05
2023-05-16T21:48:08.868Z,43.63
2023-05-16T21:50:36.602Z,45.60
2023-05-16T21:53:04.537Z,45.75
2023-05-16T21:55:32.073Z,51.30
2023-05-16T21:57:59.808Z,55.58
2023-05-16T22:00:27.987Z,54.85
2023-05-16T22:02:55.708Z,60.35
2023-05-16T22:05:23.361Z,57.60
2023-05-16T22:07:50.889Z,59.78
2023-05-16T22:10:18.678Z,59.65
2023-05-16T22:12:46.211Z,65.32
2023-05-16T22:15:13.505Z,65.10
2023-05-16T22:17:41.943Z,67.80
2023-05-16T22:20:10.042Z,70.93
2023-05-16T22:22:37.820Z,72.50
2023-05-16T22:25:05.583Z,75.78
2023-05-16T22:27:33.062Z,71.72
2023-05-16T22:30:00.536Z,72.32
2023-05-16T22:32:28.803Z,78.00
2023-05-16T22:34:56.324Z,69.75
2023-05-16T22:37:24.592Z,68.82
2023-05-16T22:39:53.240Z,69.35
2023-05-16T22:42:20.944Z,74.32
2023-05-16T22:44:48.241Z,70.57
2023-05-16T22:47:15.843Z,70.47
2023-05-16T22:49:43.247Z,72.28
2023-05-16T22:52:10.782Z,72.53
2023-05-16T22:54:38.049Z,71.90
2023-05-16T22:57:05.840Z,72.80
2023-05-16T22:59:33.270Z,70.90
2023-05-16T23:02:01.058Z,68.13
2023-05-16T23:04:28.394Z,69.80
2023-05-16T23:06:56.054Z,69.43
2023-05-16T23:09:23.475Z,69.18
2023-05-16T23:11:51.302Z,70.63
2023-05-16T23:14:18.668Z,69.70
2023-05-16T23:16:46.137Z,72.50
2023-05-16T23:19:13.511Z,70.35
2023-05-16T23:21:41.299Z,72.82
2023-05-16T23:24:08.883Z,72.38
2023-05-16T23:26:36.563Z,68.95
2023-05-16T23:29:04.205Z,72.07
2023-05-16T23:31:31.752Z,68.53
2023-05-16T23:33:59.256Z,71.68
2023-05-16T23:36:26.895Z,69.57
2023-05-16T23:38:54.257Z,69.70
2023-05-16T23:41:21.771Z,71.20
2023-05-16T23:43:48.982Z,70.05
2023-05-16T23:46:16.634Z,71.43
2023-05-16T23:48:43.996Z,68.78
2023-05-16T23:51:11.533Z,70.53
2023-05-16T23:53:38.744Z,72.60
2023-05-16T23:56:06.505Z,71.07
2023-05-16T23:58:33.918Z,71.13
